Time;durP1;ratioP1;P1;durP2;ratioP2;P2;SDS_P1;SDS_P2;PMS_P1;PMS_P2;Temp;Humidity;BMP_temperature;BMP_pressure;BME280_temperature;BME280_humidity;BME280_pressure;Samples;Min_cycle;Max_cycle;Signal;HPM_P1;HPM_P2
2022/03/13 00:02:20;;;;;;;4.88;3.03;;;19.00;43.90;;;;;;6195935;28;20032;-71
2022/03/13 00:05:21;;;;;;;4.28;2.70;;;18.90;43.90;;;;;;6195153;28;20494;-71
2022/03/13 00:08:27;;;;;;;4.88;2.90;;;19.00;44.00;;;;;;6181545;28;20466;-70
2022/03/13 00:11:29;;;;;;;4.85;3.08;;;18.90;43.90;;;;;;6171844;28;20101;-71
2022/03/13 00:14:32;;;;;;;5.07;3.20;;;18.90;43.80;;;;;;6171013;28;20034;-71
2022/03/13 00:17:33;;;;;;;4.03;2.63;;;18.90;43.90;;;;;;6170844;28;20069;-71
2022/03/13 00:20:35;;;;;;;5.47;2.78;;;18.90;43.90;;;;;;6186557;28;20469;-71
2022/03/13 00:23:36;;;;;;;3.70;2.70;;;18.90;43.90;;;;;;6195009;28;20389;-70
2022/03/13 00:26:37;;;;;;;4.38;3.00;;;18.90;43.90;;;;;;6194796;28;20054;-70
2022/03/13 00:29:41;;;;;;;4.95;2.65;;;18.90;43.90;;;;;;6194893;28;20547;-70
2022/03/13 00:32:42;;;;;;;4.75;2.67;;;18.90;43.90;;;;;;6195910;28;20045;-70
2022/03/13 00:35:43;;;;;;;4.20;2.60;;;18.90;44.00;;;;;;6194923;28;20070;-71
2022/03/13 00:38:43;;;;;;;3.45;2.50;;;19.00;44.00;;;;;;6195950;28;20034;-71
2022/03/13 00:41:46;;;;;;;4.80;2.65;;;18.90;44.00;;;;;;6218822;28;20026;-70
2022/03/13 00:44:46;;;;;;;4.55;2.88;;;18.90;44.00;;;;;;6194458;28;20150;-71
2022/03/13 00:47:47;;;;;;;3.72;2.67;;;19.00;44.00;;;;;;6195180;28;20030;-71
2022/03/13 00:50:47;;;;;;;6.78;2.67;;;19.00;44.00;;;;;;6194258;28;20023;-71
2022/03/13 00:53:48;;;;;;;4.22;2.58;;;18.90;44.00;;;;;;6194520;28;20026;-71
2022/03/13 00:56:49;;;;;;;3.90;2.55;;;19.00;44.10;;;;;;6194021;28;20425;-71
2022/03/13 00:59:49;;;;;;;4.85;2.75;;;18.90;44.00;;;;;;6194855;28;20030;-71
2022/03/13 01:02:50;;;;;;;3.75;2.55;;;18.90;44.00;;;;;;6194511;28;20031;-71
2022/03/13 01:05:50;;;;;;;4.03;2.60;;;19.00;44.10;;;;;;6194171;28;20026;-71
2022/03/13 01:08:53;;;;;;;3.45;2.40;;;19.00;44.10;;;;;;6193728;28;20117;-71
2022/03/13 01:11:54;;;;;;;3.00;2.13;;;19.00;44.10;;;;;;6194392;28;20450;-71
2022/03/13 01:14:54;;;;;;;4.22;2.70;;;19.00;44.80;;;;;;6194141;28;20485;-71
2022/03/13 01:17:54;;;;;;;3.78;2.35;;;19.00;44.10;;;;;;6194212;28;20539;-71
2022/03/13 01:20:55;;;;;;;4.82;3.00;;;19.00;44.10;;;;;;6194363;28;20030;-71
2022/03/13 01:24:05;;;;;;;4.43;2.80;;;19.00;44.10;;;;;;6193597;28;20033;-71
2022/03/13 01:27:06;;;;;;;4.13;2.60;;;19.00;44.10;;;;;;6193103;28;20460;-71
2022/03/13 01:30:07;;;;;;;3.80;2.80;;;19.00;44.10;;;;;;6193433;28;20376;-71
2022/03/13 01:33:07;;;;;;;4.35;2.72;;;18.90;44.10;;;;;;6193615;28;20112;-71
2022/03/13 01:36:08;;;;;;;3.75;2.67;;;19.00;44.10;;;;;;6193153;28;20050;-71
2022/03/13 01:39:08;;;;;;;5.68;2.90;;;19.00;44.10;;;;;;6198136;28;20034;-71
2022/03/13 01:42:09;;;;;;;4.70;2.63;;;19.00;44.10;;;;;;6213927;28;20026;-70
2022/03/13 01:45:12;;;;;;;4.05;2.50;;;19.00;44.10;;;;;;6193131;28;20034;-70
2022/03/13 01:48:13;;;;;;;3.67;2.45;;;19.00;44.10;;;;;;6193229;28;20030;-71
2022/03/13 01:51:13;;;;;;;4.50;2.63;;;18.90;44.10;;;;;;6193222;28;20385;-70
2022/03/13 01:54:14;;;;;;;4.30;2.85;;;19.00;44.20;;;;;;6192939;28;20034;-71
2022/03/13 01:57:20;;;;;;;3.70;2.50;;;18.90;44.10;;;;;;6192838;28;20062;-71
2022/03/13 02:00:21;;;;;;;3.83;2.58;;;19.00;44.90;;;;;;6192778;28;20076;-71
2022/03/13 02:03:22;;;;;;;3.08;2.33;;;18.90;44.10;;;;;;6192479;28;20038;-71
2022/03/13 02:06:23;;;;;;;4.80;2.83;;;18.90;44.10;;;;;;6192914;28;20382;-71
2022/03/13 02:09:28;;;;;;;3.80;2.63;;;18.90;44.10;;;;;;6183511;28;20027;-71
2022/03/13 02:12:29;;;;;;;3.80;2.43;;;19.00;44.20;;;;;;6169188;28;20129;-71
2022/03/13 02:15:31;;;;;;;4.18;2.72;;;19.00;44.20;;;;;;6168278;28;20035;-71
2022/03/13 02:18:32;;;;;;;5.28;2.83;;;19.00;44.20;;;;;;6169906;28;20038;-70
2022/03/13 02:21:41;;;;;;;4.40;2.72;;;19.00;44.20;;;;;;6168442;28;20105;-71
2022/03/13 02:24:41;;;;;;;3.35;2.35;;;19.00;44.20;;;;;;6172445;28;20030;-71
2022/03/13 02:27:42;;;;;;;4.05;2.75;;;19.00;44.20;;;;;;6192528;28;20125;-71
2022/03/13 02:30:42;;;;;;;3.60;2.20;;;18.90;44.10;;;;;;6192733;28;20045;-71
2022/03/13 02:33:43;;;;;;;4.47;2.75;;;19.00;44.20;;;;;;6192331;28;20348;-71
2022/03/13 02:36:46;;;;;;;5.20;2.88;;;19.00;44.20;;;;;;6192865;28;20069;-71
2022/03/13 02:39:47;;;;;;;5.00;2.92;;;19.00;44.20;;;;;;6202402;28;20088;-70
2022/03/13 02:42:48;;;;;;;4.05;2.72;;;19.00;44.20;;;;;;6207638;28;20030;-71
2022/03/13 02:45:52;;;;;;;4.00;2.60;;;18.90;44.10;;;;;;6191869;28;20362;-70
2022/03/13 02:48:52;;;;;;;4.40;2.55;;;18.90;44.10;;;;;;6192481;28;20022;-71
2022/03/13 02:51:56;;;;;;;4.40;2.58;;;19.00;44.20;;;;;;6192575;28;20034;-71
2022/03/13 02:54:57;;;;;;;3.97;2.55;;;18.90;44.10;;;;;;6192092;28;20149;-71
2022/03/13 02:57:58;;;;;;;4.75;2.85;;;19.00;44.20;;;;;;6192079;28;20068;-71
2022/03/13 03:00:59;;;;;;;4.60;2.63;;;19.00;44.20;;;;;;6192313;28;20085;-71
2022/03/13 03:04:01;;;;;;;3.45;2.55;;;19.00;44.20;;;;;;6191917;28;20531;-71
2022/03/13 03:07:05;;;;;;;4.20;2.70;;;19.00;44.30;;;;;;6192080;28;20062;-70
2022/03/13 03:10:12;;;;;;;4.63;2.90;;;19.00;44.30;;;;;;6194574;28;20030;-71
2022/03/13 03:13:15;;;;;;;4.32;2.70;;;19.00;44.30;;;;;;6190389;28;20504;-71
2022/03/13 03:16:15;;;;;;;3.92;2.50;;;19.00;44.30;;;;;;6172399;28;20023;-71
2022/03/13 03:19:16;;;;;;;4.13;2.67;;;19.00;44.30;;;;;;6172638;28;20023;-71
2022/03/13 03:22:16;;;;;;;4.25;2.60;;;19.00;44.20;;;;;;6189230;28;20023;-71
2022/03/13 03:25:28;;;;;;;3.30;2.28;;;19.00;44.20;;;;;;6196324;28;20057;-72
2022/03/13 03:28:28;;;;;;;4.45;2.72;;;18.90;44.20;;;;;;6196678;28;20049;-71
2022/03/13 03:31:29;;;;;;;2.58;1.85;;;19.00;44.20;;;;;;6196355;28;20260;-71
2022/03/13 03:34:30;;;;;;;3.25;2.28;;;18.90;44.20;;;;;;6196555;28;20081;-68
2022/03/13 03:37:33;;;;;;;3.75;2.65;;;19.00;44.20;;;;;;6196191;28;20133;-68
2022/03/13 03:40:35;;;;;;;4.20;2.80;;;18.90;44.10;;;;;;6212640;28;20041;-68
2022/03/13 03:43:35;;;;;;;3.92;2.50;;;19.00;44.20;;;;;;6204705;28;20041;-68
2022/03/13 03:46:36;;;;;;;4.70;2.75;;;18.90;44.90;;;;;;6196058;28;20531;-71
2022/03/13 03:49:37;;;;;;;4.75;2.40;;;19.00;44.30;;;;;;6195772;28;20026;-71
2022/03/13 03:52:37;;;;;;;3.83;2.20;;;19.00;44.30;;;;;;6195714;28;20382;-71
2022/03/13 03:55:38;;;;;;;4.15;2.40;;;18.90;44.20;;;;;;6195411;28;20042;-71
2022/03/13 03:58:38;;;;;;;4.55;2.67;;;18.90;44.20;;;;;;6195393;28;20029;-71
2022/03/13 04:01:41;;;;;;;3.33;2.17;;;19.00;44.30;;;;;;6199741;28;20035;-71
2022/03/13 04:04:42;;;;;;;3.58;2.30;;;19.00;44.30;;;;;;6195225;28;20054;-71
2022/03/13 04:07:43;;;;;;;4.45;2.42;;;19.00;44.30;;;;;;6187124;28;20030;-71
2022/03/13 04:10:43;;;;;;;4.38;2.65;;;18.90;44.20;;;;;;6171348;28;20549;-71
2022/03/13 04:13:44;;;;;;;3.75;2.40;;;18.90;44.20;;;;;;6171438;28;20113;-71
2022/03/13 04:16:45;;;;;;;4.38;2.65;;;18.90;44.20;;;;;;6171197;28;20057;-71
2022/03/13 04:19:46;;;;;;;3.60;2.20;;;19.00;44.30;;;;;;6170905;28;20031;-71
2022/03/13 04:22:46;;;;;;;5.65;2.88;;;19.00;44.30;;;;;;6171182;28;20030;-71
2022/03/13 04:25:48;;;;;;;3.88;2.47;;;19.00;44.30;;;;;;6182950;28;20058;-71
2022/03/13 04:28:49;;;;;;;5.10;2.80;;;18.90;44.20;;;;;;6195088;28;20409;-71
2022/03/13 04:31:52;;;;;;;4.20;2.38;;;18.90;44.10;;;;;;6195480;28;20034;-70
2022/03/13 04:34:53;;;;;;;3.72;2.47;;;19.00;44.20;;;;;;6194410;28;20061;-71
2022/03/13 04:37:53;;;;;;;3.30;2.22;;;18.90;44.20;;;;;;6194941;28;20026;-71
2022/03/13 04:40:55;;;;;;;4.63;2.47;;;18.90;44.20;;;;;;6213708;28;20029;-71
2022/03/13 04:43:56;;;;;;;4.03;2.20;;;19.00;44.20;;;;;;6200953;28;20359;-69
2022/03/13 04:46:56;;;;;;;3.60;2.40;;;18.90;44.10;;;;;;6194675;28;20120;-70
2022/03/13 04:49:57;;;;;;;4.25;2.60;;;18.90;44.10;;;;;;6194658;28;20713;-70
2022/03/13 04:52:58;;;;;;;3.42;1.95;;;18.90;44.20;;;;;;6194077;28;20065;-70
2022/03/13 04:55:59;;;;;;;3.85;2.40;;;19.00;44.20;;;;;;6194789;28;20393;-70
2022/03/13 04:59:00;;;;;;;5.43;2.75;;;18.90;44.20;;;;;;6194086;28;20057;-70
2022/03/13 05:02:00;;;;;;;4.95;2.70;;;19.00;44.30;;;;;;6194662;28;20030;-70
2022/03/13 05:05:01;;;;;;;3.75;2.42;;;18.90;44.20;;;;;;6193707;28;20584;-70
2022/03/13 05:08:05;;;;;;;3.53;2.45;;;18.90;44.20;;;;;;6183314;28;20070;-70
2022/03/13 05:11:06;;;;;;;3.83;2.42;;;18.90;44.20;;;;;;6170015;28;20034;-70
2022/03/13 05:14:07;;;;;;;3.72;2.50;;;18.90;44.20;;;;;;6170078;28;20027;-70
2022/03/13 05:17:07;;;;;;;3.95;2.30;;;18.90;44.30;;;;;;6169573;28;20030;-70
2022/03/13 05:20:09;;;;;;;3.80;2.60;;;18.90;44.20;;;;;;6169867;28;20034;-70
2022/03/13 05:23:10;;;;;;;3.42;2.20;;;18.90;44.20;;;;;;6169770;28;20351;-70
2022/03/13 05:26:10;;;;;;;4.57;2.42;;;18.90;44.20;;;;;;6169329;28;20093;-69
2022/03/13 05:29:11;;;;;;;3.75;2.67;;;18.90;44.20;;;;;;6169333;28;20049;-70
2022/03/13 05:32:12;;;;;;;6.60;2.33;;;18.90;44.20;;;;;;6169118;28;20030;-70
2022/03/13 05:35:13;;;;;;;3.72;2.47;;;18.90;44.20;;;;;;6168942;28;20528;-70
2022/03/13 05:38:14;;;;;;;3.90;2.58;;;19.00;44.40;;;;;;6169736;28;20501;-70
2022/03/13 05:41:14;;;;;;;4.47;2.70;;;18.90;44.30;;;;;;6212824;28;20033;-70
2022/03/13 05:44:15;;;;;;;5.00;2.78;;;19.00;44.40;;;;;;6196377;28;20263;-70
2022/03/13 05:47:16;;;;;;;4.38;2.53;;;18.90;44.20;;;;;;6193226;28;20030;-70
2022/03/13 05:50:18;;;;;;;3.47;2.30;;;18.90;44.30;;;;;;6193238;28;20500;-70
2022/03/13 05:53:19;;;;;;;4.85;2.47;;;18.90;44.30;;;;;;6192749;28;20045;-69
2022/03/13 05:56:19;;;;;;;4.20;2.45;;;18.90;44.30;;;;;;6193230;28;20405;-70
2022/03/13 05:59:21;;;;;;;3.75;2.40;;;18.90;44.20;;;;;;6193350;28;20038;-70
2022/03/13 06:02:22;;;;;;;4.25;2.72;;;18.90;44.30;;;;;;6180228;28;20034;-70
2022/03/13 06:05:23;;;;;;;4.43;2.60;;;18.90;44.30;;;;;;6168119;28;20026;-70
2022/03/13 06:08:23;;;;;;;3.53;2.35;;;18.90;44.30;;;;;;6168875;28;20031;-70
2022/03/13 06:11:24;;;;;;;5.70;3.30;;;19.00;44.40;;;;;;6168739;28;20042;-70
2022/03/13 06:14:25;;;;;;;4.03;2.72;;;18.90;44.30;;;;;;6168411;28;20054;-70
2022/03/13 06:17:26;;;;;;;5.40;2.67;;;18.90;44.30;;;;;;6170889;28;20026;-69
2022/03/13 06:20:27;;;;;;;3.83;2.30;;;18.90;44.30;;;;;;6168530;28;20039;-70
2022/03/13 06:23:29;;;;;;;3.30;2.20;;;18.90;44.30;;;;;;6180790;28;20034;-70
2022/03/13 06:26:29;;;;;;;3.72;2.30;;;19.00;44.40;;;;;;6192235;28;20039;-70
2022/03/13 06:29:31;;;;;;;3.50;2.40;;;18.90;44.30;;;;;;6192732;28;20489;-70
2022/03/13 06:32:34;;;;;;;4.35;2.55;;;18.90;44.30;;;;;;6192940;28;20030;-70
2022/03/13 06:35:35;;;;;;;3.55;2.25;;;18.90;44.30;;;;;;6192277;28;20034;-70
2022/03/13 06:38:35;;;;;;;2.97;2.05;;;18.90;44.40;;;;;;6192625;28;20102;-70
2022/03/13 06:41:38;;;;;;;3.67;2.50;;;18.90;44.30;;;;;;6217088;28;20140;-70
2022/03/13 06:44:40;;;;;;;4.43;2.78;;;18.90;44.30;;;;;;6195588;28;20536;-70
2022/03/13 06:47:44;;;;;;;3.83;2.38;;;18.90;44.30;;;;;;6197555;28;20038;-70
2022/03/13 06:50:45;;;;;;;2.97;1.63;;;18.90;44.30;;;;;;6197102;28;20034;-70
2022/03/13 06:53:45;;;;;;;4.15;2.75;;;18.90;44.20;;;;;;6197408;28;20481;-70
2022/03/13 06:56:48;;;;;;;4.18;2.80;;;18.90;44.30;;;;;;6197692;28;20034;-70
2022/03/13 06:59:48;;;;;;;3.13;2.33;;;18.90;44.30;;;;;;6197450;28;20073;-71
2022/03/13 07:02:49;;;;;;;3.83;2.50;;;18.90;44.30;;;;;;6196808;28;20482;-70
2022/03/13 07:05:50;;;;;;;3.78;2.42;;;19.00;44.40;;;;;;6196638;28;20034;-69
2022/03/13 07:08:51;;;;;;;6.65;2.47;;;18.90;44.30;;;;;;6196730;28;20039;-70
2022/03/13 07:11:51;;;;;;;4.18;2.72;;;18.90;44.30;;;;;;6197450;28;20379;-69
2022/03/13 07:14:57;;;;;;;3.85;2.70;;;19.00;45.10;;;;;;6196220;28;20110;-70
2022/03/13 07:17:58;;;;;;;2.92;2.05;;;18.90;44.30;;;;;;6196262;28;20163;-69
2022/03/13 07:20:59;;;;;;;5.13;2.85;;;18.90;44.30;;;;;;6196982;28;20448;-70
2022/03/13 07:24:00;;;;;;;3.85;2.53;;;18.90;44.30;;;;;;6196362;28;20050;-69
2022/03/13 07:27:00;;;;;;;4.20;2.40;;;18.90;44.30;;;;;;6196274;28;20054;-70
2022/03/13 07:30:01;;;;;;;4.32;2.45;;;18.90;44.30;;;;;;6196491;28;20030;-70
2022/03/13 07:33:02;;;;;;;4.85;2.75;;;18.90;44.30;;;;;;6196236;28;20026;-70
2022/03/13 07:36:03;;;;;;;3.38;2.25;;;18.90;44.30;;;;;;6196483;28;20441;-70
2022/03/13 07:39:03;;;;;;;3.63;2.33;;;18.90;44.30;;;;;;6200488;28;20026;-70
2022/03/13 07:42:04;;;;;;;4.18;2.60;;;18.90;44.30;;;;;;6217394;28;20500;-69
2022/03/13 07:45:05;;;;;;;5.57;3.25;;;18.90;44.30;;;;;;6195828;28;20022;-69
2022/03/13 07:48:05;;;;;;;4.15;2.70;;;18.90;44.30;;;;;;6196043;28;20026;-69
2022/03/13 07:51:07;;;;;;;4.53;2.90;;;18.90;44.30;;;;;;6196059;28;20026;-70
2022/03/13 07:54:08;;;;;;;3.95;2.47;;;18.90;44.30;;;;;;6195294;28;20023;-69
2022/03/13 07:57:08;;;;;;;4.90;2.70;;;18.90;44.30;;;;;;6195420;28;20022;-70
2022/03/13 08:00:16;;;;;;;4.82;2.33;;;18.90;44.40;;;;;;6195683;28;20058;-70
2022/03/13 08:03:24;;;;;;;3.40;2.22;;;18.90;44.30;;;;;;6195902;28;20493;-70
2022/03/13 08:06:25;;;;;;;4.40;2.50;;;18.90;44.30;;;;;;6195649;28;20429;-69
2022/03/13 08:09:25;;;;;;;3.70;2.50;;;18.90;44.40;;;;;;6195868;28;20041;-70
2022/03/13 08:12:26;;;;;;;4.03;2.28;;;18.90;44.30;;;;;;6195787;28;20038;-71
2022/03/13 08:15:26;;;;;;;3.97;2.60;;;18.90;44.40;;;;;;6195306;28;20034;-70
2022/03/13 08:18:28;;;;;;;3.97;2.25;;;18.90;44.30;;;;;;6194989;28;20450;-70
2022/03/13 08:21:28;;;;;;;3.53;2.20;;;18.90;44.30;;;;;;6195329;28;20130;-70
2022/03/13 08:24:29;;;;;;;4.28;2.70;;;18.90;44.40;;;;;;6194984;28;20366;-70
2022/03/13 08:27:29;;;;;;;4.78;2.80;;;18.90;44.30;;;;;;6195651;28;20062;-70
2022/03/13 08:30:30;;;;;;;4.40;2.70;;;18.90;44.30;;;;;;6194758;28;20298;-70
2022/03/13 08:33:30;;;;;;;4.10;2.50;;;18.90;44.30;;;;;;6195110;28;20062;-69
2022/03/13 08:36:31;;;;;;;4.13;2.50;;;18.90;44.30;;;;;;6194987;28;20517;-70
2022/03/13 08:39:32;;;;;;;4.50;2.70;;;18.90;44.30;;;;;;6201921;28;20034;-69
2022/03/13 08:42:33;;;;;;;5.75;2.78;;;18.90;44.30;;;;;;6193265;28;20393;-70
2022/03/13 08:45:33;;;;;;;4.75;2.92;;;18.90;44.20;;;;;;6188271;28;20097;-69
2022/03/13 08:48:35;;;;;;;3.83;2.47;;;19.00;44.40;;;;;;6189233;28;20022;-70
2022/03/13 08:51:35;;;;;;;5.80;2.70;;;19.00;44.30;;;;;;6189508;28;20026;-70
2022/03/13 08:54:36;;;;;;;5.53;2.60;;;19.00;44.30;;;;;;6189776;28;20565;-70
2022/03/13 08:57:36;;;;;;;3.83;2.40;;;19.00;44.30;;;;;;6189973;28;20056;-70
2022/03/13 09:00:37;;;;;;;3.55;2.28;;;19.00;44.30;;;;;;6189659;28;20033;-70
2022/03/13 09:03:38;;;;;;;6.00;2.63;;;19.00;44.40;;;;;;6186975;28;20105;-70
2022/03/13 09:06:39;;;;;;;5.45;2.67;;;18.90;44.20;;;;;;6189183;28;20377;-70
2022/03/13 09:09:41;;;;;;;5.07;2.75;;;19.00;44.30;;;;;;6189270;28;20046;-70
2022/03/13 09:12:42;;;;;;;4.63;2.63;;;18.90;44.30;;;;;;6189582;28;20042;-69
2022/03/13 09:15:42;;;;;;;4.78;2.95;;;18.90;44.20;;;;;;6192518;28;20220;-69
2022/03/13 09:18:43;;;;;;;3.50;2.13;;;18.90;44.20;;;;;;6195224;28;20023;-69
2022/03/13 09:21:44;;;;;;;4.20;2.60;;;19.00;45.10;;;;;;6195501;28;20033;-69
2022/03/13 09:24:47;;;;;;;5.00;2.63;;;18.90;44.20;;;;;;6195332;28;20030;-69
2022/03/13 09:27:49;;;;;;;3.92;2.45;;;18.90;44.20;;;;;;6194936;28;20412;-69
2022/03/13 09:30:49;;;;;;;4.10;2.30;;;18.90;44.10;;;;;;6194998;28;20030;-68
2022/03/13 09:33:50;;;;;;;4.38;2.53;;;18.90;44.20;;;;;;6194711;28;20133;-69
2022/03/13 09:36:50;;;;;;;4.30;2.53;;;19.00;44.30;;;;;;6194914;28;20066;-69
2022/03/13 09:39:52;;;;;;;5.90;2.92;;;19.00;44.30;;;;;;6194753;28;20102;-69
2022/03/13 09:42:52;;;;;;;4.78;2.97;;;18.90;44.10;;;;;;6194637;28;20117;-69
2022/03/13 09:45:53;;;;;;;4.55;2.60;;;19.00;44.90;;;;;;6194588;28;20215;-69
2022/03/13 09:48:54;;;;;;;3.42;2.30;;;18.90;44.10;;;;;;6194833;28;20031;-69
2022/03/13 09:51:54;;;;;;;3.47;2.20;;;19.00;44.20;;;;;;6194398;28;20018;-69
2022/03/13 09:54:55;;;;;;;4.45;2.83;;;19.00;44.20;;;;;;6194284;28;20065;-69
2022/03/13 09:57:56;;;;;;;4.20;2.60;;;18.90;44.10;;;;;;6194230;28;20482;-69
2022/03/13 10:00:57;;;;;;;4.25;2.58;;;18.90;44.10;;;;;;6194429;28;20026;-68
2022/03/13 10:03:59;;;;;;;4.68;2.83;;;18.90;44.10;;;;;;6194742;28;20026;-69
2022/03/13 10:07:10;;;;;;;3.28;2.15;;;18.90;44.10;;;;;;6194597;28;20066;-69
2022/03/13 10:10:14;;;;;;;4.38;2.50;;;19.00;44.20;;;;;;6194075;28;20023;-69
2022/03/13 10:13:32;;;;;;;4.50;2.63;;;19.00;44.20;;;;;;6193916;28;20029;-69
2022/03/13 10:16:39;;;;;;;3.42;2.45;;;18.90;44.10;;;;;;6194108;28;20072;-69
2022/03/13 10:19:40;;;;;;;3.15;2.10;;;19.00;44.10;;;;;;6193569;28;20027;-69
2022/03/13 10:22:42;;;;;;;3.83;2.55;;;19.00;44.20;;;;;;6194079;28;20045;-69
2022/03/13 10:25:44;;;;;;;4.00;2.80;;;19.00;44.10;;;;;;6192772;28;20409;-69
2022/03/13 10:28:45;;;;;;;4.90;2.72;;;19.00;44.10;;;;;;6193766;28;20110;-69
2022/03/13 10:31:57;;;;;;;3.75;2.30;;;19.00;44.20;;;;;;6193768;28;20038;-69
2022/03/13 10:34:58;;;;;;;5.28;2.83;;;18.90;44.10;;;;;;6193389;28;20037;-69
2022/03/13 10:37:59;;;;;;;4.65;2.50;;;19.00;44.10;;;;;;6194172;28;20022;-69
2022/03/13 10:40:59;;;;;;;3.97;2.30;;;19.00;44.80;;;;;;6193505;28;20026;-70
2022/03/13 10:44:02;;;;;;;3.25;2.28;;;18.90;44.10;;;;;;6193687;28;20049;-69
2022/03/13 10:47:05;;;;;;;4.00;2.28;;;18.90;44.00;;;;;;6193624;28;20096;-69
2022/03/13 10:50:06;;;;;;;3.30;2.15;;;19.00;44.10;;;;;;6193806;28;20031;-69
2022/03/13 10:53:12;;;;;;;5.30;2.08;;;19.00;44.10;;;;;;6193254;28;20026;-69
2022/03/13 10:56:14;;;;;;;3.42;2.25;;;19.00;44.10;;;;;;6193574;28;20034;-71
2022/03/13 10:59:19;;;;;;;3.28;2.33;;;19.00;44.10;;;;;;6193022;28;20026;-69
2022/03/13 11:02:24;;;;;;;4.30;2.45;;;19.00;44.10;;;;;;6193250;28;20438;-69
2022/03/13 11:05:25;;;;;;;;;;;19.00;44.10;;;;;;6194138;28;20035;-69
2022/03/13 11:08:26;;;;;;;4.75;2.80;;;19.00;44.10;;;;;;6193375;28;19909;-69
2022/03/13 11:11:27;;;;;;;4.47;2.70;;;19.00;44.00;;;;;;6193485;28;20022;-68
2022/03/13 11:14:28;;;;;;;3.42;2.20;;;19.00;44.10;;;;;;6193400;28;20053;-69
2022/03/13 11:17:31;;;;;;;4.35;2.38;;;19.00;44.00;;;;;;6193136;28;20038;-68
2022/03/13 11:20:32;;;;;;;4.63;2.50;;;18.90;43.90;;;;;;6193575;28;20109;-69
2022/03/13 11:23:36;;;;;;;3.72;2.30;;;19.00;44.00;;;;;;6193803;28;20014;-68
2022/03/13 11:26:40;;;;;;;3.70;2.53;;;19.00;44.00;;;;;;6192958;28;20093;-69
2022/03/13 11:29:42;;;;;;;5.35;2.42;;;19.00;44.00;;;;;;6193581;28;20125;-69
2022/03/13 11:32:49;;;;;;;3.70;2.38;;;19.00;44.00;;;;;;6197324;28;20034;-69
2022/03/13 11:35:52;;;;;;;3.08;2.13;;;19.00;44.00;;;;;;6197514;28;20037;-69
2022/03/13 11:39:13;;;;;;;4.75;2.90;;;19.00;44.00;;;;;;6197638;28;20509;-69
2022/03/13 11:42:22;;;;;;;3.50;2.50;;;19.00;44.00;;;;;;6197372;28;20527;-69
2022/03/13 11:45:32;;;;;;;3.47;2.20;;;19.00;44.00;;;;;;6197698;28;20026;-69
2022/03/13 11:48:36;;;;;;;3.15;2.30;;;19.00;44.00;;;;;;6197907;28;20036;-69
2022/03/13 11:51:36;;;;;;;4.68;2.58;;;19.00;44.00;;;;;;6197293;28;20033;-69
2022/03/13 11:55:04;;;;;;;3.95;2.38;;;19.00;44.00;;;;;;6197244;28;20062;-68
2022/03/13 11:58:04;;;;;;;3.78;2.28;;;19.00;44.00;;;;;;6197329;28;20034;-69
2022/03/13 12:01:06;;;;;;;4.43;2.50;;;19.00;44.00;;;;;;6196001;28;20520;-69
2022/03/13 12:04:10;;;;;;;3.67;2.30;;;19.00;44.00;;;;;;6196532;28;20022;-69
2022/03/13 12:07:28;;;;;;;3.75;2.40;;;19.00;44.00;;;;;;6197377;28;20081;-69
2022/03/13 12:10:42;;;;;;;3.90;2.55;;;19.00;44.00;;;;;;6197209;28;20034;-69
2022/03/13 12:13:48;;;;;;;3.03;1.75;;;19.00;44.00;;;;;;6196528;28;20441;-69
2022/03/13 12:17:08;;;;;;;6.68;2.30;;;19.00;44.00;;;;;;6196607;28;20498;-69
2022/03/13 12:20:19;;;;;;;3.38;2.20;;;19.00;44.10;;;;;;6196739;28;20034;-69
2022/03/13 12:23:34;;;;;;;3.97;2.42;;;19.00;44.10;;;;;;6197000;28;20652;-69
2022/03/13 12:26:35;;;;;;;3.03;2.05;;;19.00;44.10;;;;;;6195848;28;20576;-69
2022/03/13 12:29:36;;;;;;;3.35;2.20;;;19.00;44.10;;;;;;6196349;28;20026;-69
2022/03/13 12:32:37;;;;;;;3.47;2.13;;;19.00;44.10;;;;;;6195207;28;20054;-69
2022/03/13 12:35:37;;;;;;;4.35;2.42;;;19.00;44.10;;;;;;6196445;28;20088;-69
2022/03/13 12:38:42;;;;;;;3.72;2.35;;;19.00;44.10;;;;;;6194876;28;20035;-69
2022/03/13 12:41:44;;;;;;;4.38;2.63;;;19.00;44.10;;;;;;6196573;28;20037;-70
2022/03/13 12:45:17;;;;;;;3.65;2.10;;;19.00;44.10;;;;;;6196154;28;20038;-69
2022/03/13 12:48:18;;;;;;;3.55;2.28;;;19.00;44.10;;;;;;6195776;28;20030;-69
2022/03/13 12:51:41;;;;;;;3.88;2.50;;;19.00;44.10;;;;;;6195756;28;20547;-69
2022/03/13 12:54:42;;;;;;;3.80;2.53;;;19.00;44.10;;;;;;6195971;28;20043;-69
2022/03/13 12:57:50;;;;;;;5.25;2.60;;;19.00;44.10;;;;;;6196029;28;20042;-69
2022/03/13 13:00:51;;;;;;;4.38;2.60;;;19.00;44.10;;;;;;6195659;28;20031;-68
2022/03/13 13:03:52;;;;;;;3.53;2.38;;;19.00;44.10;;;;;;6195454;28;20524;-68
2022/03/13 13:06:53;;;;;;;4.45;2.22;;;19.00;44.10;;;;;;6195521;28;20481;-69
2022/03/13 13:09:54;;;;;;;4.20;2.60;;;19.00;44.10;;;;;;6195556;28;20101;-69
2022/03/13 13:12:55;;;;;;;4.68;2.47;;;19.00;44.10;;;;;;6195384;28;20037;-69
2022/03/13 13:15:56;;;;;;;3.20;2.22;;;19.00;44.10;;;;;;6194999;28;20030;-69
2022/03/13 13:18:58;;;;;;;2.88;1.83;;;19.00;44.10;;;;;;6195269;28;20105;-69
2022/03/13 13:22:00;;;;;;;3.80;2.30;;;19.00;44.10;;;;;;6195224;28;20031;-68
2022/03/13 13:25:21;;;;;;;4.22;2.47;;;19.00;44.10;;;;;;6197278;28;20489;-68
2022/03/13 13:28:23;;;;;;;4.25;2.40;;;19.00;44.10;;;;;;6194477;28;20049;-69
2022/03/13 13:31:23;;;;;;;3.22;2.28;;;19.00;44.20;;;;;;6194789;28;20052;-69
2022/03/13 13:34:24;;;;;;;3.67;2.20;;;19.00;44.10;;;;;;6194726;28;20064;-69
2022/03/13 13:37:24;;;;;;;3.15;1.95;;;19.00;44.10;;;;;;6194534;28;20034;-69
2022/03/13 13:40:33;;;;;;;3.55;2.28;;;19.00;44.20;;;;;;6193311;28;20022;-69
2022/03/13 13:43:43;;;;;;;3.00;2.25;;;19.00;44.20;;;;;;6193806;28;20552;-69
2022/03/13 13:46:44;;;;;;;3.35;2.08;;;19.00;44.10;;;;;;6194854;28;20018;-69
2022/03/13 13:49:44;;;;;;;3.83;1.88;;;19.00;44.20;;;;;;6194453;28;20408;-69
2022/03/13 13:53:01;;;;;;;3.45;2.25;;;19.00;44.90;;;;;;6193857;28;20026;-69
2022/03/13 13:56:10;;;;;;;3.75;2.30;;;19.00;44.20;;;;;;6194196;28;20046;-69
2022/03/13 13:59:28;;;;;;;3.28;2.30;;;19.00;44.20;;;;;;6193942;28;20050;-69
2022/03/13 14:02:29;;;;;;;3.97;2.22;;;19.00;44.20;;;;;;6194436;28;20041;-69
2022/03/13 14:05:29;;;;;;;3.20;2.13;;;19.00;44.20;;;;;;6194269;28;20026;-69
2022/03/13 14:08:32;;;;;;;3.75;2.30;;;19.00;44.20;;;;;;6193955;28;20032;-69
2022/03/13 14:11:33;;;;;;;3.78;2.40;;;19.00;44.20;;;;;;6194554;28;20519;-69
2022/03/13 14:14:34;;;;;;;5.20;2.63;;;19.00;44.20;;;;;;6193941;28;20029;-69
2022/03/13 14:17:35;;;;;;;3.65;2.13;;;19.00;44.20;;;;;;6194024;28;20054;-69
2022/03/13 14:20:35;;;;;;;4.15;2.15;;;19.00;44.20;;;;;;6193673;28;20026;-69
2022/03/13 14:23:36;;;;;;;2.22;1.65;;;19.00;44.20;;;;;;6194235;28;20029;-69
2022/03/13 14:26:37;;;;;;;4.10;2.20;;;19.00;44.20;;;;;;6193073;28;20050;-69
2022/03/13 14:29:37;;;;;;;3.63;2.20;;;19.00;44.20;;;;;;6193252;28;20053;-69
2022/03/13 14:32:38;;;;;;;3.90;2.30;;;19.00;44.20;;;;;;6193934;28;20027;-69
2022/03/13 14:35:38;;;;;;;2.85;1.75;;;19.00;44.20;;;;;;6193755;28;20044;-69
2022/03/13 14:38:47;;;;;;;3.30;2.03;;;19.00;44.10;;;;;;6193701;28;20034;-69
2022/03/13 14:41:47;;;;;;;3.25;2.05;;;19.00;44.20;;;;;;6193722;28;20304;-68
2022/03/13 14:44:48;;;;;;;2.92;2.15;;;19.00;44.10;;;;;;6193270;28;20104;-69
2022/03/13 14:47:48;;;;;;;3.63;2.30;;;19.00;44.10;;;;;;6193359;28;20061;-69
2022/03/13 14:50:51;;;;;;;3.13;2.10;;;19.00;44.20;;;;;;6192610;28;20030;-69
2022/03/13 14:53:51;;;;;;;3.42;1.90;;;19.00;44.10;;;;;;6193744;28;20042;-69
2022/03/13 14:56:52;;;;;;;3.03;2.00;;;19.00;44.20;;;;;;6193137;28;20085;-69
2022/03/13 14:59:53;;;;;;;3.35;2.15;;;19.00;44.10;;;;;;6193581;28;20066;-69
2022/03/13 15:02:54;;;;;;;4.38;2.28;;;19.00;44.10;;;;;;6193529;28;20034;-69
2022/03/13 15:05:55;;;;;;;3.72;2.33;;;19.00;44.10;;;;;;6197458;28;20027;-69
2022/03/13 15:08:55;;;;;;;4.03;2.25;;;19.00;44.10;;;;;;6197992;28;20065;-69
2022/03/13 15:11:56;;;;;;;3.25;2.13;;;19.00;44.10;;;;;;6198002;28;20026;-69
2022/03/13 15:14:56;;;;;;;3.97;2.10;;;19.00;44.10;;;;;;6197934;28;20343;-68
2022/03/13 15:17:57;;;;;;;3.63;2.10;;;19.00;44.10;;;;;;6197898;28;20113;-69
2022/03/13 15:20:57;;;;;;;3.95;2.35;;;19.00;44.10;;;;;;6197772;28;20026;-69
2022/03/13 15:23:58;;;;;;;3.28;2.13;;;19.00;44.10;;;;;;6197917;28;20081;-69
2022/03/13 15:26:58;;;;;;;3.25;2.10;;;19.00;44.10;;;;;;6197616;28;20523;-69
2022/03/13 15:29:59;;;;;;;4.28;2.25;;;19.00;44.10;;;;;;6197933;28;20081;-69
2022/03/13 15:33:00;;;;;;;3.72;2.47;;;19.00;44.10;;;;;;6197328;28;20023;-69
2022/03/13 15:36:01;;;;;;;3.63;2.30;;;19.00;44.10;;;;;;6188547;28;20121;-69
2022/03/13 15:39:01;;;;;;;3.25;2.00;;;19.00;44.10;;;;;;6194389;28;20050;-69
2022/03/13 15:42:02;;;;;;;3.65;2.25;;;19.00;44.10;;;;;;6197619;28;20057;-69
2022/03/13 15:45:05;;;;;;;3.40;2.20;;;19.00;44.10;;;;;;6197058;28;20054;-69
2022/03/13 15:48:05;;;;;;;2.70;2.00;;;19.00;44.10;;;;;;6191352;28;20038;-69
2022/03/13 15:51:07;;;;;;;3.33;2.15;;;19.00;44.10;;;;;;6216442;28;20033;-69